KSDY

Details ICAO KSDY (SDY)
Name Sidney Richland Muni
Region United States
Timezone America/Denver (UTC-6.0)
Plans Departing 2
Arriving 3
Stats Elevation 1,984 ft / 605 m (AMSL)
Location 47.707289° -104.191741°
Runways 2
Magnetic Variation 8.319° E
Sunrise 2018-05-22 11:12:24 UTC / 2018-05-22 05:12:24 Local
Sunset 2018-05-23 02:37:23 UTC / 2018-05-22 20:37:23 Local
Advertisement - Login to hide

Runways

ID Width Length Bearing (true) Bearing (mag) Surface Threshold Offset Overrun Length
01 100 ft / 30 m 5,703 ft / 1,738 m 23.66° 15.34° Asphalt 0 ft / 0 m 0 ft / 0 m
10 100 ft / 30 m 4,014 ft / 1,223 m 117.14° 108.82° Asphalt 0 ft / 0 m 0 ft / 0 m
19 100 ft / 30 m 5,703 ft / 1,738 m 203.66° 195.34° Asphalt 0 ft / 0 m 0 ft / 0 m
28 100 ft / 30 m 4,014 ft / 1,223 m 297.15° 288.83° Asphalt 0 ft / 0 m 0 ft / 0 m

Map

Weather


0- 5 10 15 20 25 30 35+ Temperature / ° C

Clouds and Precipitation
Forecast for 2018-05-22 12:00 UTC. Updated an hour ago

Ground ~20,000 ft ~40,000 ft Winds

METAR

KSDY 220956Z AUTO 00000KT 10SM CLR 10/08 A2988 RMK AO2 SLP118 T01000083

TAF

KSDY 220533Z 2206/2306 VRB03KT P6SM SKC FM221800 09005KT P6SM BKN100 FM222000 03006KT P6SM VCTS BKN100CB FM222200 01009KT P6SM BKN080 PROB30 2222/2304 -TSRA OVC080CB FM230500 05007KT P6SM VCTS BKN080CB

Frequencies

Recorded 119.27 MHz AWOS 3
Unicom 122.80 MHz CTAF/UNICOM
Warning: Do not use this data for real-world aviation or navigation. No guarantee of current accuracy is given.